Time;durP1;ratioP1;P1;durP2;ratioP2;P2;SDS_P1;SDS_P2;PMS_P1;PMS_P2;Temp;Humidity;BMP_temperature;BMP_pressure;BME280_temperature;BME280_humidity;BME280_pressure;Samples;Min_cycle;Max_cycle;Signal;HPM_P1;HPM_P2
2023/07/03 00:00:12;;;;;;;0.00;0.00;;;;;;;;;;5083387;28;20221;-76
2023/07/03 00:02:39;;;;;;;0.43;0.43;;;;;;;;;;5072189;28;20229;-77
2023/07/03 00:05:06;;;;;;;0.10;0.10;;;;;;;;;;5083442;28;20214;-77
2023/07/03 00:07:32;;;;;;;0.10;0.10;;;;;;;;;;5071965;28;20289;-77
2023/07/03 00:10:01;;;;;;;0.00;0.00;;;;;;;;;;5083355;28;20237;-77
2023/07/03 00:12:27;;;;;;;0.10;0.10;;;;;;;;;;5088874;28;20341;-76
2023/07/03 00:14:54;;;;;;;2.28;0.85;;;;;;;;;;5083645;28;20440;-77
2023/07/03 00:17:22;;;;;;;0.00;0.00;;;;;;;;;;5089225;28;20240;-76
2023/07/03 00:19:48;;;;;;;0.10;0.10;;;;;;;;;;5083356;28;20201;-77
2023/07/03 00:22:15;;;;;;;0.10;0.10;;;;;;;;;;5089318;28;20305;-76
2023/07/03 00:24:41;;;;;;;0.10;0.10;;;;;;;;;;5083490;28;20239;-76
2023/07/03 00:27:07;;;;;;;0.05;0.05;;;;;;;;;;5088744;28;20259;-77
2023/07/03 00:29:34;;;;;;;0.10;0.10;;;;;;;;;;5084359;28;20458;-77
2023/07/03 00:32:01;;;;;;;0.00;0.00;;;;;;;;;;5087816;28;20290;-76
2023/07/03 00:34:29;;;;;;;0.10;0.10;;;;;;;;;;5084174;28;20203;-77
2023/07/03 00:36:55;;;;;;;0.00;0.00;;;;;;;;;;5086957;28;20517;-77
2023/07/03 00:39:21;;;;;;;0.00;0.00;;;;;;;;;;5084878;28;20273;-77
2023/07/03 00:41:48;;;;;;;0.00;0.00;;;;;;;;;;5085893;28;20259;-77
2023/07/03 00:44:15;;;;;;;0.10;0.10;;;;;;;;;;5085849;28;20235;-77
2023/07/03 00:46:43;;;;;;;0.10;0.10;;;;;;;;;;5085322;28;20307;-77
2023/07/03 00:49:10;;;;;;;0.00;0.00;;;;;;;;;;5089911;28;20272;-77
2023/07/03 00:51:39;;;;;;;0.10;0.10;;;;;;;;;;5088297;28;20491;-77
2023/07/03 00:54:06;;;;;;;0.00;0.00;;;;;;;;;;5090729;28;20272;-77
2023/07/03 00:56:33;;;;;;;0.00;0.00;;;;;;;;;;5087689;28;20238;-77
2023/07/03 00:58:59;;;;;;;0.35;0.35;;;;;;;;;;5091140;28;20233;-77
2023/07/03 01:01:28;;;;;;;0.10;0.10;;;;;;;;;;5086638;28;20313;-77
2023/07/03 01:03:56;;;;;;;0.10;0.10;;;;;;;;;;5091947;28;20395;-75
2023/07/03 01:06:28;;;;;;;0.10;0.10;;;;;;;;;;5086281;28;20242;-75
2023/07/03 01:08:57;;;;;;;0.30;0.30;;;;;;;;;;5091972;28;20195;-75
2023/07/03 01:11:24;;;;;;;0.10;0.10;;;;;;;;;;5086236;28;20593;-75
2023/07/03 01:13:52;;;;;;;0.10;0.10;;;;;;;;;;5092383;28;20235;-75
2023/07/03 01:16:19;;;;;;;0.10;0.10;;;;;;;;;;5085458;28;20461;-75
2023/07/03 01:18:46;;;;;;;0.10;0.10;;;;;;;;;;5092886;28;20206;-76
2023/07/03 01:21:16;;;;;;;0.00;0.00;;;;;;;;;;5084560;28;20263;-75
2023/07/03 01:23:45;;;;;;;0.10;0.10;;;;;;;;;;5093162;28;20226;-76
2023/07/03 01:26:14;;;;;;;0.00;0.00;;;;;;;;;;5084206;28;20520;-75
2023/07/03 01:28:42;;;;;;;0.10;0.10;;;;;;;;;;5093724;28;20228;-75
2023/07/03 01:31:09;;;;;;;0.00;0.00;;;;;;;;;;5083845;28;20304;-76
2023/07/03 01:33:40;;;;;;;0.00;0.00;;;;;;;;;;5094015;28;20204;-75
2023/07/03 01:36:07;;;;;;;0.08;0.08;;;;;;;;;;5083541;28;20239;-75
2023/07/03 01:38:34;;;;;;;0.10;0.10;;;;;;;;;;5094163;28;20268;-75
2023/07/03 01:41:01;;;;;;;0.90;0.90;;;;;;;;;;5082692;28;20241;-76
2023/07/03 01:43:29;;;;;;;1.88;0.47;;;;;;;;;;5094913;28;20371;-75
2023/07/03 01:45:56;;;;;;;0.00;0.00;;;;;;;;;;5082092;28;20247;-75
2023/07/03 01:48:22;;;;;;;0.40;0.40;;;;;;;;;;5095470;28;20239;-75
2023/07/03 01:50:49;;;;;;;0.00;0.00;;;;;;;;;;5080982;28;20541;-75
2023/07/03 01:53:18;;;;;;;0.10;0.10;;;;;;;;;;5096390;28;20501;-76
2023/07/03 01:55:47;;;;;;;0.10;0.10;;;;;;;;;;5080193;28;20300;-75
2023/07/03 01:58:18;;;;;;;0.10;0.10;;;;;;;;;;5096138;28;20399;-75
2023/07/03 02:00:49;;;;;;;0.00;0.00;;;;;;;;;;5080298;28;20241;-76
2023/07/03 02:03:19;;;;;;;0.10;0.10;;;;;;;;;;5096233;28;20200;-75
2023/07/03 02:05:46;;;;;;;0.00;0.00;;;;;;;;;;5080191;28;20252;-76
2023/07/03 02:08:13;;;;;;;0.10;0.10;;;;;;;;;;5096478;28;20231;-76
2023/07/03 02:10:39;;;;;;;0.05;0.05;;;;;;;;;;5079037;28;20315;-75
2023/07/03 02:13:06;;;;;;;0.10;0.10;;;;;;;;;;5097150;28;20454;-74
2023/07/03 02:15:32;;;;;;;0.10;0.10;;;;;;;;;;5078386;28;20475;-75
2023/07/03 02:18:01;;;;;;;0.00;0.00;;;;;;;;;;5098071;28;20232;-75
2023/07/03 02:20:28;;;;;;;0.10;0.10;;;;;;;;;;5078015;28;20285;-74
2023/07/03 02:22:56;;;;;;;0.05;0.05;;;;;;;;;;5098359;28;20243;-76
2023/07/03 02:25:22;;;;;;;0.10;0.10;;;;;;;;;;5076488;28;20207;-75
2023/07/03 02:27:50;;;;;;;0.10;0.10;;;;;;;;;;5099126;28;20382;-75
2023/07/03 02:30:17;;;;;;;0.10;0.10;;;;;;;;;;5076018;28;20231;-75
2023/07/03 02:32:43;;;;;;;0.00;0.00;;;;;;;;;;5099357;28;20265;-76
2023/07/03 02:35:11;;;;;;;0.30;0.30;;;;;;;;;;5074797;28;20252;-74
2023/07/03 02:37:37;;;;;;;0.00;0.00;;;;;;;;;;5100446;28;20243;-75
2023/07/03 02:40:05;;;;;;;0.10;0.10;;;;;;;;;;5084843;28;20267;-76
2023/07/03 02:42:32;;;;;;;0.08;0.08;;;;;;;;;;5090373;28;20464;-76
2023/07/03 02:44:59;;;;;;;0.10;0.10;;;;;;;;;;5084991;28;20211;-75
2023/07/03 02:47:25;;;;;;;0.20;0.20;;;;;;;;;;5090218;28;20245;-76
2023/07/03 02:49:52;;;;;;;0.00;0.00;;;;;;;;;;5084853;28;20563;-77
2023/07/03 02:52:20;;;;;;;0.10;0.10;;;;;;;;;;5090228;28;20251;-76
2023/07/03 02:54:46;;;;;;;0.00;0.00;;;;;;;;;;5084536;28;20267;-77
2023/07/03 02:57:12;;;;;;;0.00;0.00;;;;;;;;;;5090078;28;20307;-77
2023/07/03 02:59:39;;;;;;;0.00;0.00;;;;;;;;;;5084697;28;20256;-74
2023/07/03 03:02:06;;;;;;;0.00;0.00;;;;;;;;;;5089576;28;20259;-73
2023/07/03 03:04:33;;;;;;;0.00;0.00;;;;;;;;;;5084522;28;20392;-73
2023/07/03 03:06:59;;;;;;;0.10;0.10;;;;;;;;;;5088721;28;20267;-74
2023/07/03 03:09:27;;;;;;;0.00;0.00;;;;;;;;;;5085041;28;20205;-74
2023/07/03 03:11:53;;;;;;;0.10;0.10;;;;;;;;;;5087575;28;20265;-74
2023/07/03 03:14:19;;;;;;;0.20;0.20;;;;;;;;;;5086004;28;20204;-74
2023/07/03 03:16:46;;;;;;;0.08;0.08;;;;;;;;;;5086683;28;20461;-74
2023/07/03 03:19:12;;;;;;;0.10;0.10;;;;;;;;;;5087162;28;20448;-74
2023/07/03 03:21:39;;;;;;;0.00;0.00;;;;;;;;;;5085772;28;20240;-73
2023/07/03 03:24:05;;;;;;;0.08;0.08;;;;;;;;;;5087900;28;20206;-74
2023/07/03 03:26:33;;;;;;;0.08;0.08;;;;;;;;;;5084855;28;20270;-73
2023/07/03 03:28:59;;;;;;;0.03;0.03;;;;;;;;;;5088401;28;20211;-74
2023/07/03 03:31:26;;;;;;;0.10;0.10;;;;;;;;;;5083755;28;20256;-73
2023/07/03 03:33:52;;;;;;;0.10;0.10;;;;;;;;;;5089614;28;20494;-74
2023/07/03 03:36:18;;;;;;;0.00;0.00;;;;;;;;;;5082886;28;20303;-74
2023/07/03 03:38:45;;;;;;;0.00;0.00;;;;;;;;;;5090124;28;20240;-73
2023/07/03 03:41:11;;;;;;;0.10;0.10;;;;;;;;;;5082019;28;20594;-74
2023/07/03 03:43:39;;;;;;;0.10;0.10;;;;;;;;;;5091085;28;20240;-73
2023/07/03 03:46:06;;;;;;;0.00;0.00;;;;;;;;;;5081008;28;20454;-74
2023/07/03 03:48:33;;;;;;;0.10;0.10;;;;;;;;;;5091676;28;20204;-73
2023/07/03 03:51:00;;;;;;;0.00;0.00;;;;;;;;;;5080002;28;20249;-74
2023/07/03 03:53:27;;;;;;;0.10;0.10;;;;;;;;;;5092309;28;20201;-74
2023/07/03 03:55:54;;;;;;;0.10;0.10;;;;;;;;;;5078930;28;20243;-74
2023/07/03 03:58:21;;;;;;;0.10;0.10;;;;;;;;;;5093568;28;20207;-73
2023/07/03 04:00:50;;;;;;;0.10;0.10;;;;;;;;;;5078098;28;20243;-73
2023/07/03 04:03:19;;;;;;;0.00;0.00;;;;;;;;;;5093719;28;20210;-74
2023/07/03 04:05:46;;;;;;;0.10;0.10;;;;;;;;;;5076943;28;20240;-74
2023/07/03 04:08:12;;;;;;;0.10;0.10;;;;;;;;;;5095246;28;20243;-74
2023/07/03 04:10:39;;;;;;;0.05;0.05;;;;;;;;;;5077389;28;20567;-74
2023/07/03 04:13:06;;;;;;;0.05;0.05;;;;;;;;;;5095049;28;20392;-74
2023/07/03 04:15:35;;;;;;;0.00;0.00;;;;;;;;;;5076549;28;20239;-73
2023/07/03 04:18:03;;;;;;;0.10;0.10;;;;;;;;;;5095640;28;20393;-74
2023/07/03 04:20:29;;;;;;;0.68;0.68;;;;;;;;;;5076065;28;20248;-73
2023/07/03 04:22:56;;;;;;;0.10;0.10;;;;;;;;;;5100355;28;20204;-74
2023/07/03 04:25:22;;;;;;;0.00;0.00;;;;;;;;;;5079101;28;20220;-74
2023/07/03 04:27:49;;;;;;;0.28;0.28;;;;;;;;;;5101285;28;20192;-73
2023/07/03 04:30:15;;;;;;;0.03;0.03;;;;;;;;;;5077897;28;20221;-74
2023/07/03 04:32:42;;;;;;;0.10;0.10;;;;;;;;;;5102212;28;20468;-74
2023/07/03 04:35:10;;;;;;;0.10;0.10;;;;;;;;;;5078023;28;20224;-74
2023/07/03 04:37:37;;;;;;;1.95;1.85;;;;;;;;;;5102797;28;20290;-73
2023/07/03 04:40:04;;;;;;;0.03;0.03;;;;;;;;;;5087104;28;20275;-73
2023/07/03 04:42:32;;;;;;;0.10;0.10;;;;;;;;;;5092610;28;20436;-74
2023/07/03 04:45:00;;;;;;;0.10;0.10;;;;;;;;;;5087388;28;20422;-74
2023/07/03 04:47:26;;;;;;;0.10;0.10;;;;;;;;;;5092582;28;20239;-73
2023/07/03 04:49:55;;;;;;;0.05;0.05;;;;;;;;;;5087041;28;20197;-72
2023/07/03 04:52:27;;;;;;;0.10;0.10;;;;;;;;;;5092319;28;20286;-73
2023/07/03 04:54:53;;;;;;;0.10;0.10;;;;;;;;;;5087163;28;20194;-73
2023/07/03 04:57:20;;;;;;;0.10;0.10;;;;;;;;;;5092417;28;20251;-73
2023/07/03 04:59:47;;;;;;;0.32;0.32;;;;;;;;;;5086915;28;20263;-74
2023/07/03 05:02:16;;;;;;;0.10;0.10;;;;;;;;;;5092178;28;20238;-75
2023/07/03 05:04:42;;;;;;;0.10;0.10;;;;;;;;;;5086679;28;20211;-74
2023/07/03 05:07:09;;;;;;;0.10;0.10;;;;;;;;;;5092074;28;20238;-74
2023/07/03 05:09:37;;;;;;;4.15;1.70;;;;;;;;;;5086878;28;20456;-74
2023/07/03 05:12:03;;;;;;;0.13;0.13;;;;;;;;;;5091323;28;20266;-74
2023/07/03 05:14:30;;;;;;;0.10;0.10;;;;;;;;;;5087341;28;20270;-74
2023/07/03 05:16:56;;;;;;;0.00;0.00;;;;;;;;;;5090491;28;20313;-74
2023/07/03 05:19:22;;;;;;;0.00;0.00;;;;;;;;;;5087743;28;20224;-74
2023/07/03 05:21:49;;;;;;;0.10;0.10;;;;;;;;;;5089098;28;20507;-74
2023/07/03 05:24:15;;;;;;;0.20;0.20;;;;;;;;;;5089061;28;20237;-75
2023/07/03 05:26:43;;;;;;;0.10;0.10;;;;;;;;;;5088389;28;20304;-75
2023/07/03 05:29:09;;;;;;;0.03;0.03;;;;;;;;;;5089488;28;20224;-74
2023/07/03 05:31:36;;;;;;;0.03;0.03;;;;;;;;;;5087464;28;20244;-74
2023/07/03 05:34:02;;;;;;;0.85;0.30;;;;;;;;;;5089792;28;20236;-75
2023/07/03 05:36:30;;;;;;;0.20;0.20;;;;;;;;;;5086207;28;20450;-75
2023/07/03 05:38:56;;;;;;;0.88;0.88;;;;;;;;;;5090901;28;20229;-74
2023/07/03 05:41:23;;;;;;;0.05;0.05;;;;;;;;;;5085699;28;20259;-74
2023/07/03 05:43:50;;;;;;;0.00;0.00;;;;;;;;;;5091752;28;20204;-74
2023/07/03 05:46:17;;;;;;;2.55;2.10;;;;;;;;;;5084522;28;20459;-74
2023/07/03 05:48:43;;;;;;;0.00;0.00;;;;;;;;;;5092304;28;20220;-74
2023/07/03 05:51:09;;;;;;;0.00;0.00;;;;;;;;;;5083688;28;20266;-74
2023/07/03 05:53:36;;;;;;;0.10;0.10;;;;;;;;;;5093439;28;20207;-73
2023/07/03 05:56:02;;;;;;;0.00;0.00;;;;;;;;;;5082506;28;20244;-74
2023/07/03 05:58:30;;;;;;;0.10;0.10;;;;;;;;;;5094441;28;20398;-75
2023/07/03 06:00:58;;;;;;;0.03;0.03;;;;;;;;;;5081266;28;20290;-74
2023/07/03 06:03:25;;;;;;;2.25;1.25;;;;;;;;;;5095429;28;20210;-75
2023/07/03 06:05:52;;;;;;;0.60;0.60;;;;;;;;;;5080859;28;20469;-75
2023/07/03 06:08:18;;;;;;;0.00;0.00;;;;;;;;;;5095411;28;20205;-74
2023/07/03 06:10:47;;;;;;;0.20;0.20;;;;;;;;;;5080399;28;20451;-74
2023/07/03 06:13:14;;;;;;;0.13;0.13;;;;;;;;;;5096563;28;20438;-75
2023/07/03 06:15:43;;;;;;;0.00;0.00;;;;;;;;;;5078065;28;20245;-75
2023/07/03 06:18:11;;;;;;;0.10;0.10;;;;;;;;;;5096892;28;20244;-74
2023/07/03 06:20:45;;;;;;;0.00;0.00;;;;;;;;;;5079000;28;20294;-74
2023/07/03 06:23:11;;;;;;;0.00;0.00;;;;;;;;;;5096298;28;20206;-74
2023/07/03 06:25:38;;;;;;;1.50;1.40;;;;;;;;;;5078919;28;20575;-75
2023/07/03 06:28:04;;;;;;;0.10;0.10;;;;;;;;;;5097042;28;20204;-72
2023/07/03 06:30:31;;;;;;;0.10;0.10;;;;;;;;;;5078120;28;20568;-73
2023/07/03 06:32:57;;;;;;;0.08;0.08;;;;;;;;;;5097727;28;20330;-73
2023/07/03 06:35:25;;;;;;;0.03;0.03;;;;;;;;;;5076752;28;20244;-72
2023/07/03 06:37:52;;;;;;;1.13;0.28;;;;;;;;;;5098630;28;20209;-73
2023/07/03 06:40:19;;;;;;;0.10;0.10;;;;;;;;;;5075957;28;20211;-73
2023/07/03 06:42:46;;;;;;;0.75;0.68;;;;;;;;;;5099255;28;20278;-73
2023/07/03 06:45:12;;;;;;;0.10;0.10;;;;;;;;;;5074011;28;20556;-73
2023/07/03 06:47:39;;;;;;;0.10;0.10;;;;;;;;;;5100033;28;20245;-76
2023/07/03 06:50:06;;;;;;;0.63;0.63;;;;;;;;;;5084756;28;20392;-75
2023/07/03 06:52:35;;;;;;;0.00;0.00;;;;;;;;;;5090313;28;20236;-73
2023/07/03 06:55:01;;;;;;;0.00;0.00;;;;;;;;;;5084720;28;20247;-73
2023/07/03 06:57:28;;;;;;;0.10;0.10;;;;;;;;;;5090199;28;20502;-79
2023/07/03 06:59:54;;;;;;;0.38;0.35;;;;;;;;;;5084350;28;20231;-73
2023/07/03 07:02:21;;;;;;;0.22;0.22;;;;;;;;;;5089976;28;20247;-75
2023/07/03 07:04:47;;;;;;;0.25;0.25;;;;;;;;;;5084509;28;20214;-75
2023/07/03 07:07:14;;;;;;;0.00;0.00;;;;;;;;;;5089970;28;20561;-78
2023/07/03 07:09:41;;;;;;;0.00;0.00;;;;;;;;;;5085055;28;20210;-81
2023/07/03 07:12:08;;;;;;;0.10;0.10;;;;;;;;;;5090214;28;20263;-82
2023/07/03 07:14:35;;;;;;;0.10;0.10;;;;;;;;;;5084834;28;20411;-79
2023/07/03 07:17:02;;;;;;;0.10;0.10;;;;;;;;;;5088824;28;20316;-80
2023/07/03 07:19:29;;;;;;;0.10;0.10;;;;;;;;;;5085680;28;20201;-81
2023/07/03 07:21:55;;;;;;;0.10;0.10;;;;;;;;;;5088616;28;20232;-85
2023/07/03 07:24:34;;;;;;;0.05;0.05;;;;;;;;;;5085595;28;20203;-79
2023/07/03 07:27:15;;;;;;;0.20;0.20;;;;;;;;;;5088488;28;20305;-80
2023/07/03 07:29:41;;;;;;;2.25;0.98;;;;;;;;;;5083938;28;20263;-79
2023/07/03 07:32:09;;;;;;;0.30;0.30;;;;;;;;;;5089371;28;20232;-80
2023/07/03 07:34:36;;;;;;;0.00;0.00;;;;;;;;;;5083893;28;20267;-79
2023/07/03 07:37:02;;;;;;;5.35;5.05;;;;;;;;;;5088395;28;20244;-78
2023/07/03 07:39:29;;;;;;;0.28;0.28;;;;;;;;;;5084498;28;20211;-78
2023/07/03 07:44:39;;;;;;;0.15;0.15;;;;;;;;;;5082166;28;20278;-80
2023/07/03 07:47:06;;;;;;;0.00;0.00;;;;;;;;;;5075634;28;20291;-78
2023/07/03 07:49:42;;;;;;;0.65;0.40;;;;;;;;;;5084160;28;20229;-79
2023/07/03 07:52:09;;;;;;;0.00;0.00;;;;;;;;;;5089313;28;20286;-79
2023/07/03 07:54:35;;;;;;;1.38;1.33;;;;;;;;;;5083722;28;20533;-78
2023/07/03 07:57:01;;;;;;;0.10;0.10;;;;;;;;;;5088120;28;20270;-79
2023/07/03 07:59:28;;;;;;;0.30;0.30;;;;;;;;;;5084352;28;20208;-78
2023/07/03 08:01:56;;;;;;;11.77;6.32;;;;;;;;;;5087154;28;20235;-78
2023/07/03 08:04:23;;;;;;;0.00;0.00;;;;;;;;;;5085340;28;20213;-78
2023/07/03 08:06:50;;;;;;;0.00;0.00;;;;;;;;;;5086633;28;20290;-79
2023/07/03 08:09:22;;;;;;;0.00;0.00;;;;;;;;;;5085724;28;20227;-79
2023/07/03 08:11:49;;;;;;;1.58;1.48;;;;;;;;;;5086195;28;20294;-77
2023/07/03 08:14:15;;;;;;;0.63;0.63;;;;;;;;;;5085815;28;20379;-76
2023/07/03 08:16:42;;;;;;;0.10;0.10;;;;;;;;;;5085364;28;20245;-75
2023/07/03 08:19:10;;;;;;;0.08;0.08;;;;;;;;;;5087103;28;20430;-79
2023/07/03 08:21:36;;;;;;;0.03;0.03;;;;;;;;;;5084687;28;20305;-78
2023/07/03 08:24:02;;;;;;;0.05;0.05;;;;;;;;;;5087463;28;20236;-76
2023/07/03 08:26:31;;;;;;;0.10;0.10;;;;;;;;;;5083710;28;20261;-76
2023/07/03 08:28:57;;;;;;;2.15;1.95;;;;;;;;;;5088265;28;20205;-78
2023/07/03 08:31:24;;;;;;;0.00;0.00;;;;;;;;;;5082882;28;20582;-78
2023/07/03 08:33:52;;;;;;;0.10;0.10;;;;;;;;;;5089182;28;20206;-77
2023/07/03 08:36:20;;;;;;;0.00;0.00;;;;;;;;;;5082589;28;20475;-78
2023/07/03 08:38:46;;;;;;;0.10;0.10;;;;;;;;;;5089645;28;20283;-78
2023/07/03 08:41:14;;;;;;;0.10;0.10;;;;;;;;;;5081609;28;20261;-74
2023/07/03 08:43:42;;;;;;;2.47;2.38;;;;;;;;;;5090230;28;20388;-76
2023/07/03 08:46:10;;;;;;;0.00;0.00;;;;;;;;;;5080841;28;20239;-75
2023/07/03 08:48:37;;;;;;;0.10;0.10;;;;;;;;;;5090888;28;20206;-74
2023/07/03 08:51:04;;;;;;;0.00;0.00;;;;;;;;;;5079987;28;20269;-75
2023/07/03 08:53:35;;;;;;;0.10;0.10;;;;;;;;;;5091450;28;20229;-77
2023/07/03 08:56:04;;;;;;;0.08;0.08;;;;;;;;;;5079812;28;20239;-76
2023/07/03 08:58:30;;;;;;;0.40;0.40;;;;;;;;;;5091406;28;20233;-76
2023/07/03 09:01:02;;;;;;;0.05;0.05;;;;;;;;;;5078727;28;20272;-76
2023/07/03 09:03:35;;;;;;;0.38;0.38;;;;;;;;;;5091991;28;20224;-75
2023/07/03 09:06:07;;;;;;;0.22;0.17;;;;;;;;;;5078848;28;20280;-78
2023/07/03 09:08:39;;;;;;;0.10;0.10;;;;;;;;;;5092345;28;20454;-77
2023/07/03 09:11:08;;;;;;;0.00;0.00;;;;;;;;;;5084300;28;20245;-74
2023/07/03 09:13:39;;;;;;;0.00;0.00;;;;;;;;;;5094534;28;20228;-77
2023/07/03 09:16:09;;;;;;;0.10;0.10;;;;;;;;;;5083904;28;20294;-78
2023/07/03 09:18:37;;;;;;;0.10;0.10;;;;;;;;;;5085550;28;20259;-78
2023/07/03 09:21:04;;;;;;;0.00;0.00;;;;;;;;;;5083566;28;20277;-77
2023/07/03 09:23:34;;;;;;;0.00;0.00;;;;;;;;;;5094775;28;20386;-76
2023/07/03 09:26:06;;;;;;;0.00;0.00;;;;;;;;;;5083032;28;20287;-76
2023/07/03 09:28:39;;;;;;;0.00;0.00;;;;;;;;;;5095051;28;20245;-78
2023/07/03 09:31:05;;;;;;;0.00;0.00;;;;;;;;;;5083458;28;20278;-77
2023/07/03 09:33:32;;;;;;;0.50;0.50;;;;;;;;;;5094409;28;20228;-78
2023/07/03 09:36:02;;;;;;;0.10;0.10;;;;;;;;;;5082687;28;20232;-75
2023/07/03 09:38:28;;;;;;;0.10;0.10;;;;;;;;;;5094925;28;20233;-74
2023/07/03 09:40:55;;;;;;;0.10;0.10;;;;;;;;;;5082020;28;20241;-75
2023/07/03 09:43:24;;;;;;;0.00;0.00;;;;;;;;;;5095760;28;20389;-76
2023/07/03 09:45:51;;;;;;;0.05;0.05;;;;;;;;;;5081622;28;20297;-74
2023/07/03 09:48:18;;;;;;;0.00;0.00;;;;;;;;;;5096173;28;20277;-70
2023/07/03 09:50:45;;;;;;;0.68;0.68;;;;;;;;;;5080715;28;20308;-71
2023/07/03 09:53:15;;;;;;;0.47;0.47;;;;;;;;;;5096758;28;20519;-72
2023/07/03 09:55:41;;;;;;;0.00;0.00;;;;;;;;;;5080421;28;20251;-71
2023/07/03 09:58:12;;;;;;;0.10;0.10;;;;;;;;;;5097226;28;20274;-77
2023/07/03 10:00:54;;;;;;;0.10;0.10;;;;;;;;;;5079627;28;20284;-76
2023/07/03 10:03:24;;;;;;;0.00;0.00;;;;;;;;;;5095517;28;20202;-79
2023/07/03 10:05:50;;;;;;;1.65;1.45;;;;;;;;;;5080866;28;20296;-78
2023/07/03 10:08:19;;;;;;;0.10;0.10;;;;;;;;;;5095673;28;20249;-72
2023/07/03 10:10:46;;;;;;;0.10;0.10;;;;;;;;;;5080149;28;20262;-73
2023/07/03 10:13:15;;;;;;;0.00;0.00;;;;;;;;;;5096433;28;20231;-76
2023/07/03 10:15:43;;;;;;;0.25;0.25;;;;;;;;;;5079904;28;20252;-72
2023/07/03 10:18:13;;;;;;;0.00;0.00;;;;;;;;;;5096316;28;20210;-72
2023/07/03 10:20:41;;;;;;;2.75;1.05;;;;;;;;;;5079454;28;20242;-73
2023/07/03 10:23:09;;;;;;;0.00;0.00;;;;;;;;;;5096950;28;20191;-73
2023/07/03 10:25:37;;;;;;;0.15;0.15;;;;;;;;;;5079040;28;20412;-80
2023/07/03 10:28:07;;;;;;;0.57;0.57;;;;;;;;;;5096935;28;20230;-78
2023/07/03 10:30:36;;;;;;;0.00;0.00;;;;;;;;;;5078772;28;20239;-80
2023/07/03 10:33:06;;;;;;;0.03;0.03;;;;;;;;;;5097179;28;20250;-82
2023/07/03 10:35:35;;;;;;;0.00;0.00;;;;;;;;;;5078382;28;20456;-80
2023/07/03 10:38:05;;;;;;;0.10;0.10;;;;;;;;;;5097546;28;20235;-76
2023/07/03 10:40:33;;;;;;;0.00;0.00;;;;;;;;;;5077959;28;20246;-79
2023/07/03 10:43:02;;;;;;;0.00;0.00;;;;;;;;;;5097730;28;20499;-81
2023/07/03 10:45:32;;;;;;;0.00;0.00;;;;;;;;;;5078177;28;20304;-78
2023/07/03 10:48:01;;;;;;;0.10;0.10;;;;;;;;;;5097618;28;20199;-81
2023/07/03 10:50:31;;;;;;;0.03;0.03;;;;;;;;;;5077452;28;20461;-79
2023/07/03 10:53:05;;;;;;;0.80;0.80;;;;;;;;;;5097311;28;20291;-76
2023/07/03 10:55:34;;;;;;;0.00;0.00;;;;;;;;;;5077518;28;20305;-78
2023/07/03 10:58:03;;;;;;;0.10;0.10;;;;;;;;;;5096902;28;20226;-79
2023/07/03 11:00:32;;;;;;;0.00;0.00;;;;;;;;;;5077076;28;20310;-82
2023/07/03 11:03:05;;;;;;;0.38;0.38;;;;;;;;;;5097359;28;20383;-79
2023/07/03 11:05:35;;;;;;;0.00;0.00;;;;;;;;;;5077776;28;20288;-83
2023/07/03 11:08:10;;;;;;;0.10;0.10;;;;;;;;;;5097103;28;20191;-78
2023/07/03 11:10:40;;;;;;;0.00;0.00;;;;;;;;;;5078202;28;20234;-82
2023/07/03 11:13:11;;;;;;;0.00;0.00;;;;;;;;;;5096045;28;20295;-88
2023/07/03 11:15:41;;;;;;;0.10;0.10;;;;;;;;;;5077849;28;20254;-81
2023/07/03 11:18:14;;;;;;;0.00;0.00;;;;;;;;;;5095810;28;20206;-75
2023/07/03 11:20:43;;;;;;;0.00;0.00;;;;;;;;;;5078724;28;20238;-78
2023/07/03 11:23:19;;;;;;;0.20;0.20;;;;;;;;;;5095354;28;20430;-77
2023/07/03 11:25:49;;;;;;;0.03;0.03;;;;;;;;;;5078518;28;20284;-74
2023/07/03 11:28:19;;;;;;;0.10;0.10;;;;;;;;;;5094729;28;20234;-73
2023/07/03 11:30:46;;;;;;;0.00;0.00;;;;;;;;;;5078505;28;20589;-78
2023/07/03 11:33:14;;;;;;;0.00;0.00;;;;;;;;;;5094513;28;20288;-74
2023/07/03 11:35:50;;;;;;;0.00;0.00;;;;;;;;;;5078258;28;20238;-75
2023/07/03 11:38:19;;;;;;;0.00;0.00;;;;;;;;;;5094091;28;20191;-77
2023/07/03 11:41:01;;;;;;;0.00;0.00;;;;;;;;;;5078629;28;20308;-75
2023/07/03 11:43:38;;;;;;;0.10;0.10;;;;;;;;;;5092737;28;20286;-74
2023/07/03 11:46:09;;;;;;;0.10;0.10;;;;;;;;;;5080991;28;20321;-81
2023/07/03 11:48:42;;;;;;;0.00;0.00;;;;;;;;;;5091726;28;20188;-78
2023/07/03 11:51:10;;;;;;;0.00;0.00;;;;;;;;;;5081193;28;20305;-75
2023/07/03 11:53:40;;;;;;;0.35;0.22;;;;;;;;;;5091318;28;20227;-77
2023/07/03 11:56:07;;;;;;;0.73;0.73;;;;;;;;;;5080181;28;20269;-80
2023/07/03 11:58:37;;;;;;;0.10;0.10;;;;;;;;;;5091879;28;20199;-79
2023/07/03 12:01:22;;;;;;;0.05;0.05;;;;;;;;;;5079939;28;20258;-80
2023/07/03 12:03:49;;;;;;;0.00;0.00;;;;;;;;;;5090262;28;20233;-80
2023/07/03 12:06:30;;;;;;;0.00;0.00;;;;;;;;;;5082515;28;20562;-80
2023/07/03 12:09:20;;;;;;;0.00;0.00;;;;;;;;;;5088445;28;20203;-79
2023/07/03 12:12:06;;;;;;;0.90;0.90;;;;;;;;;;5086292;28;20584;-78
2023/07/03 12:14:56;;;;;;;0.08;0.08;;;;;;;;;;5083750;28;20238;-79
2023/07/03 12:17:24;;;;;;;0.00;0.00;;;;;;;;;;5088908;28;20248;-76
2023/07/03 12:19:53;;;;;;;0.00;0.00;;;;;;;;;;5083676;28;20278;-76
2023/07/03 12:22:21;;;;;;;0.22;0.22;;;;;;;;;;5088871;28;20242;-75
2023/07/03 12:24:49;;;;;;;3.70;3.38;;;;;;;;;;5083687;28;20199;-75
2023/07/03 12:27:22;;;;;;;0.00;0.00;;;;;;;;;;5088922;28;20235;-75
2023/07/03 12:29:50;;;;;;;0.00;0.00;;;;;;;;;;5083203;28;20227;-75
2023/07/03 12:32:23;;;;;;;0.38;0.20;;;;;;;;;;5088801;28;20302;-76
2023/07/03 12:34:50;;;;;;;1.35;0.55;;;;;;;;;;5083444;28;20290;-76
2023/07/03 12:37:17;;;;;;;1.02;0.65;;;;;;;;;;5088753;28;20241;-74
2023/07/03 12:39:44;;;;;;;9.80;0.52;;;;;;;;;;5083513;28;20555;-74
2023/07/03 12:42:13;;;;;;;0.00;0.00;;;;;;;;;;5089620;28;20250;-75
2023/07/03 12:44:40;;;;;;;0.00;0.00;;;;;;;;;;5087294;28;20468;-75
2023/07/03 12:47:10;;;;;;;0.00;0.00;;;;;;;;;;5092549;28;20280;-75
2023/07/03 12:50:11;;;;;;;0.80;0.80;;;;;;;;;;5087723;28;20467;-79
2023/07/03 12:52:41;;;;;;;0.00;0.00;;;;;;;;;;5075805;28;20207;-78
2023/07/03 12:55:10;;;;;;;0.00;0.00;;;;;;;;;;5087286;28;20386;-79
2023/07/03 12:57:41;;;;;;;0.10;0.10;;;;;;;;;;5075340;28;20207;-77
2023/07/03 13:00:14;;;;;;;0.10;0.10;;;;;;;;;;5086073;28;20216;-77
2023/07/03 13:02:41;;;;;;;0.00;0.00;;;;;;;;;;5101751;28;20324;-78
2023/07/03 13:05:10;;;;;;;0.00;0.00;;;;;;;;;;5086832;28;20211;-75
2023/07/03 13:07:36;;;;;;;0.00;0.00;;;;;;;;;;5075353;28;20279;-78
2023/07/03 13:10:08;;;;;;;0.10;0.10;;;;;;;;;;5086982;28;20218;-82
2023/07/03 13:12:35;;;;;;;0.00;0.00;;;;;;;;;;5075421;28;20477;-77
2023/07/03 13:15:06;;;;;;;0.00;0.00;;;;;;;;;;5086678;28;20460;-76
2023/07/03 13:17:33;;;;;;;0.00;0.00;;;;;;;;;;5075195;28;20690;-78
2023/07/03 13:20:24;;;;;;;0.03;0.03;;;;;;;;;;5087021;28;20217;-79
2023/07/03 13:22:52;;;;;;;0.05;0.05;;;;;;;;;;5086428;28;20209;-74
2023/07/03 13:25:23;;;;;;;0.00;0.00;;;;;;;;;;5077625;28;20435;-76
2023/07/03 13:27:52;;;;;;;0.00;0.00;;;;;;;;;;5100083;28;20207;-75
2023/07/03 13:30:23;;;;;;;0.00;0.00;;;;;;;;;;5077525;28;20214;-77
2023/07/03 13:32:53;;;;;;;0.10;0.10;;;;;;;;;;5100208;28;20203;-80
2023/07/03 13:35:26;;;;;;;0.30;0.13;;;;;;;;;;5077446;28;20235;-76
2023/07/03 13:37:53;;;;;;;14.43;4.55;;;;;;;;;;5099462;28;20192;-77
2023/07/03 13:40:24;;;;;;;0.10;0.10;;;;;;;;;;5076429;28;20272;-77
2023/07/03 13:42:56;;;;;;;0.00;0.00;;;;;;;;;;5100402;28;20262;-76
2023/07/03 13:45:25;;;;;;;0.00;0.00;;;;;;;;;;5077912;28;20238;-75
2023/07/03 13:47:52;;;;;;;0.00;0.00;;;;;;;;;;5099349;28;20209;-75
2023/07/03 13:50:19;;;;;;;0.10;0.10;;;;;;;;;;5077067;28;20274;-79
2023/07/03 13:52:45;;;;;;;3.65;3.50;;;;;;;;;;5100306;28;20192;-74
2023/07/03 13:55:12;;;;;;;0.00;0.00;;;;;;;;;;5075431;28;20218;-74
2023/07/03 13:57:39;;;;;;;0.00;0.00;;;;;;;;;;5100907;28;20227;-73
2023/07/03 14:00:07;;;;;;;0.00;0.00;;;;;;;;;;5086049;28;20226;-74
2023/07/03 14:02:36;;;;;;;5.78;5.35;;;;;;;;;;5074344;28;20210;-74
2023/07/03 14:05:02;;;;;;;0.00;0.00;;;;;;;;;;5085622;28;20252;-73
2023/07/03 14:07:29;;;;;;;0.00;0.00;;;;;;;;;;5091191;28;20259;-74
2023/07/03 14:09:57;;;;;;;0.00;0.00;;;;;;;;;;5086002;28;20203;-75
2023/07/03 14:12:23;;;;;;;0.90;0.90;;;;;;;;;;5091071;28;20312;-72
2023/07/03 14:14:50;;;;;;;0.00;0.00;;;;;;;;;;5085876;28;20273;-76
2023/07/03 14:17:16;;;;;;;0.10;0.10;;;;;;;;;;5090972;28;20250;-73
2023/07/03 14:19:44;;;;;;;2.35;0.30;;;;;;;;;;5085825;28;20253;-73
2023/07/03 14:22:10;;;;;;;0.47;0.47;;;;;;;;;;5090690;28;20256;-72
2023/07/03 14:24:37;;;;;;;0.00;0.00;;;;;;;;;;5085842;28;20257;-73
2023/07/03 14:27:03;;;;;;;0.10;0.10;;;;;;;;;;5090172;28;20517;-71
2023/07/03 14:29:30;;;;;;;0.00;0.00;;;;;;;;;;5086170;28;20375;-79
2023/07/03 14:31:56;;;;;;;0.00;0.00;;;;;;;;;;5089031;28;20310;-78
2023/07/03 14:34:22;;;;;;;0.00;0.00;;;;;;;;;;5087115;28;20227;-82
2023/07/03 14:36:50;;;;;;;0.20;0.20;;;;;;;;;;5088037;28;20242;-77
2023/07/03 14:39:17;;;;;;;5.45;5.28;;;;;;;;;;5087706;28;20438;-75
2023/07/03 14:41:43;;;;;;;0.00;0.00;;;;;;;;;;5087045;28;20242;-75
2023/07/03 14:44:10;;;;;;;0.08;0.08;;;;;;;;;;5088090;28;20528;-75
2023/07/03 14:46:36;;;;;;;0.00;0.00;;;;;;;;;;5086236;28;20439;-75
2023/07/03 14:49:02;;;;;;;0.10;0.10;;;;;;;;;;5088900;28;20242;-78
2023/07/03 14:51:29;;;;;;;0.00;0.00;;;;;;;;;;5085036;28;20306;-77